createdAt,value
2023-05-24T00:01:57.026Z,0.93
2023-05-24T00:04:25.590Z,0.82
2023-05-24T00:06:55.113Z,1.33
2023-05-24T00:09:21.966Z,0.60
2023-05-24T00:11:48.714Z,0.90
2023-05-24T00:14:15.634Z,0.82
2023-05-24T00:16:42.350Z,1.20
2023-05-24T00:19:11.386Z,0.60
2023-05-24T00:21:38.545Z,0.57
2023-05-24T00:24:05.301Z,0.60
2023-05-24T00:26:31.851Z,0.60
2023-05-24T00:28:58.415Z,0.70
2023-05-24T00:31:25.041Z,0.97
2023-05-24T00:33:51.662Z,1.13
2023-05-24T00:36:18.315Z,0.68
2023-05-24T00:38:44.920Z,0.60
2023-05-24T00:41:11.650Z,1.20
2023-05-24T00:43:38.253Z,0.60
2023-05-24T00:46:16.979Z,0.77
2023-05-24T00:48:44.808Z,1.08
2023-05-24T00:51:13.141Z,1.00
2023-05-24T00:53:41.360Z,0.98
2023-05-24T00:56:08.702Z,0.80
2023-05-24T00:58:35.567Z,0.70
2023-05-24T01:01:03.603Z,0.63
2023-05-24T01:03:30.442Z,1.08
2023-05-24T01:05:58.560Z,0.68
2023-05-24T01:08:40.504Z,0.83
2023-05-24T01:11:17.876Z,1.05
2023-05-24T01:13:55.053Z,1.00
2023-05-24T01:16:26.130Z,0.68
2023-05-24T01:19:13.021Z,0.75
2023-05-24T01:21:59.114Z,0.80
2023-05-24T01:24:42.468Z,0.90
2023-05-24T01:27:15.301Z,0.80
2023-05-24T01:29:42.668Z,1.05
2023-05-24T01:32:10.026Z,0.90
2023-05-24T01:34:36.608Z,1.23
2023-05-24T01:37:03.093Z,1.20
2023-05-24T01:39:30.657Z,1.00
2023-05-24T01:42:06.203Z,1.38
2023-05-24T01:45:00.465Z,1.30
2023-05-24T01:47:42.406Z,0.70
2023-05-24T01:50:23.839Z,0.80
2023-05-24T01:52:53.492Z,1.00
2023-05-24T01:55:20.961Z,0.75
2023-05-24T01:57:50.657Z,0.90
2023-05-24T02:00:19.289Z,1.07
2023-05-24T02:02:46.710Z,1.38
2023-05-24T02:05:13.534Z,1.13
2023-05-24T02:07:41.487Z,1.10
2023-05-24T02:10:08.474Z,1.60
2023-05-24T02:12:35.103Z,1.03
2023-05-24T02:15:01.696Z,0.80
2023-05-24T02:17:28.303Z,1.75
2023-05-24T02:19:54.940Z,0.80
2023-05-24T02:22:22.446Z,1.20
2023-05-24T02:24:49.131Z,1.60
2023-05-24T02:27:15.684Z,1.05
2023-05-24T02:29:42.273Z,2.10
2023-05-24T02:32:09.252Z,1.38
2023-05-24T02:34:35.957Z,0.98
2023-05-24T02:37:02.707Z,1.33
2023-05-24T02:39:29.227Z,1.67
2023-05-24T02:41:55.796Z,0.93
2023-05-24T02:44:22.371Z,1.70
2023-05-24T02:55:18.625Z,1.35
2023-05-24T03:24:16.098Z,1.30
2023-05-24T03:26:45.148Z,0.80
2023-05-24T03:29:11.926Z,1.08
2023-05-24T03:31:43.524Z,1.30
2023-05-24T03:34:11.662Z,1.08
2023-05-24T03:36:39.701Z,1.13
2023-05-24T03:39:08.677Z,0.80
2023-05-24T03:41:40.298Z,1.13
2023-05-24T03:44:11.750Z,1.27
2023-05-24T03:54:24.856Z,1.23
2023-05-24T03:57:19.370Z,0.88
2023-05-24T04:11:53.497Z,1.00
2023-05-24T05:17:32.685Z,1.73
2023-05-24T05:20:08.507Z,2.33
2023-05-24T05:22:46.185Z,2.00
2023-05-24T05:25:21.065Z,1.80
2023-05-24T05:28:23.641Z,2.15
2023-05-24T05:31:27.005Z,1.60
2023-05-24T05:34:14.020Z,1.42
2023-05-24T05:37:24.900Z,1.90
2023-05-24T06:44:51.093Z,1.83
2023-05-24T07:18:30.789Z,1.52
2023-05-24T07:20:57.808Z,1.35
2023-05-24T07:23:26.764Z,1.42
2023-05-24T07:25:53.547Z,1.52
2023-05-24T07:28:22.237Z,1.30
2023-05-24T07:30:52.162Z,1.40
2023-05-24T07:33:23.965Z,1.85
2023-05-24T07:35:55.328Z,1.10
2023-05-24T07:38:24.143Z,1.38
2023-05-24T07:42:31.367Z,1.40
2023-05-24T07:44:50.693Z,1.85
2023-05-24T07:55:30.774Z,1.63
2023-05-24T07:58:37.818Z,1.50
2023-05-24T09:03:03.828Z,1.42
2023-05-24T09:05:41.535Z,1.27
2023-05-24T09:10:54.972Z,1.33
2023-05-24T09:11:40.226Z,1.50
2023-05-24T09:14:35.831Z,1.80
2023-05-24T09:17:13.039Z,0.95
2023-05-24T09:20:01.503Z,1.50
2023-05-24T09:26:14.163Z,1.45
2023-05-24T09:31:55.005Z,0.93
2023-05-24T09:34:38.531Z,1.52
2023-05-24T09:37:27.458Z,1.20
2023-05-24T09:40:28.800Z,1.27
2023-05-24T09:43:13.176Z,1.52
2023-05-24T09:49:41.493Z,1.55
2023-05-24T09:52:18.782Z,1.83
2023-05-24T09:54:48.267Z,1.95
2023-05-24T09:57:18.316Z,2.03
2023-05-24T09:59:47.107Z,1.63
2023-05-24T10:02:38.106Z,1.83
2023-05-24T10:08:14.142Z,1.15
2023-05-24T10:10:58.647Z,1.48
2023-05-24T10:13:50.799Z,1.50
2023-05-24T10:17:32.027Z,1.75
2023-05-24T10:19:52.665Z,1.50
2023-05-24T10:25:18.738Z,1.30
2023-05-24T10:26:19.145Z,1.35
2023-05-24T10:28:57.759Z,1.33
2023-05-24T10:31:58.883Z,1.73
2023-05-24T10:34:40.595Z,1.20
2023-05-24T10:37:17.511Z,1.23
2023-05-24T10:39:57.177Z,1.20
2023-05-24T10:42:39.940Z,1.40
2023-05-24T10:45:47.864Z,1.25
2023-05-24T10:48:54.631Z,1.37
2023-05-24T10:52:59.680Z,1.33
2023-05-24T10:55:28.736Z,1.30
2023-05-24T10:58:45.465Z,1.17
2023-05-24T11:02:03.619Z,1.25
2023-05-24T11:05:14.285Z,1.00
2023-05-24T11:11:42.380Z,1.13
2023-05-24T11:14:33.154Z,1.10
2023-05-24T11:17:17.354Z,1.23
2023-05-24T11:20:27.018Z,1.00
2023-05-24T11:23:20.481Z,1.23
2023-05-24T11:25:49.429Z,1.42
2023-05-24T11:28:31.875Z,1.15
2023-05-24T11:31:31.011Z,1.10
2023-05-24T11:34:31.124Z,1.30
2023-05-24T11:37:38.444Z,1.20
2023-05-24T11:40:27.428Z,1.40
2023-05-24T11:42:58.708Z,1.30
2023-05-24T11:45:47.189Z,1.30
2023-05-24T11:48:34.490Z,1.43
2023-05-24T11:52:06.536Z,1.20
2023-05-24T11:59:09.024Z,1.00
2023-05-24T12:08:41.755Z,1.50
2023-05-24T12:11:34.022Z,1.05
2023-05-24T12:17:13.888Z,1.17
2023-05-24T12:20:11.706Z,1.40
2023-05-24T12:22:56.420Z,1.40
2023-05-24T12:25:29.896Z,1.30
2023-05-24T12:25:58.095Z,1.45
2023-05-24T12:32:06.284Z,1.35
2023-05-24T12:34:53.206Z,1.00
2023-05-24T12:37:34.382Z,1.10
2023-05-24T12:40:08.091Z,1.23
2023-05-24T12:40:54.360Z,1.38
2023-05-24T12:42:36.612Z,1.30
2023-05-24T12:48:46.841Z,1.17
2023-05-24T12:52:15.438Z,1.35
2023-05-24T12:55:25.423Z,1.67
2023-05-24T12:58:35.359Z,1.40
2023-05-24T13:01:02.500Z,1.55
2023-05-24T13:11:30.648Z,2.58
2023-05-24T13:14:24.473Z,1.85
2023-05-24T13:17:21.324Z,2.33
2023-05-24T13:20:33.950Z,1.83
2023-05-24T13:23:25.654Z,2.22
2023-05-24T13:26:40.082Z,2.03
2023-05-24T13:30:19.915Z,1.50
2023-05-24T13:33:03.617Z,1.35
2023-05-24T13:35:50.249Z,1.70
2023-05-24T13:39:21.612Z,1.42
2023-05-24T13:44:46.546Z,1.38
2023-05-24T13:47:38.498Z,1.30
2023-05-24T13:50:28.175Z,1.50
2023-05-24T13:53:26.382Z,1.23
2023-05-24T13:56:28.464Z,1.55
2023-05-24T14:02:03.222Z,1.48
2023-05-24T14:04:46.161Z,1.23
2023-05-24T14:07:53.591Z,1.70
2023-05-24T14:28:51.368Z,1.58
2023-05-24T14:32:08.854Z,1.25
2023-05-24T14:35:13.552Z,1.40
2023-05-24T14:38:00.794Z,1.70
2023-05-24T14:38:03.173Z,1.35
2023-05-24T14:40:54.617Z,1.50
2023-05-24T14:43:38.111Z,1.67
2023-05-24T14:46:39.476Z,1.88
2023-05-24T14:49:26.983Z,1.27
2023-05-24T14:52:16.174Z,1.00
2023-05-24T14:58:01.990Z,1.20
2023-05-24T14:58:33.647Z,1.13
2023-05-24T15:03:23.995Z,1.43
2023-05-24T15:06:09.583Z,0.90
2023-05-24T15:08:42.412Z,1.60
2023-05-24T15:11:16.324Z,1.27
2023-05-24T15:17:23.955Z,1.13
2023-05-24T15:20:43.740Z,1.20
2023-05-24T15:23:38.255Z,1.30
2023-05-24T15:26:04.930Z,1.27
2023-05-24T15:28:59.306Z,1.13
2023-05-24T15:30:14.768Z,1.08
2023-05-24T15:35:10.371Z,1.20
2023-05-24T15:37:54.240Z,1.10
2023-05-24T15:40:27.877Z,1.23
2023-05-24T15:48:37.160Z,1.30
2023-05-24T15:48:55.263Z,1.20
2023-05-24T15:52:03.476Z,1.58
2023-05-24T15:54:53.108Z,1.67
2023-05-24T15:57:35.341Z,1.30
2023-05-24T16:00:02.307Z,1.37
2023-05-24T16:02:38.188Z,1.73
2023-05-24T16:05:13.079Z,0.93
2023-05-24T16:07:44.684Z,1.70
2023-05-24T16:10:30.657Z,1.20
2023-05-24T16:13:27.052Z,1.10
2023-05-24T16:16:00.306Z,1.30
2023-05-24T16:18:31.698Z,1.45
2023-05-24T16:21:25.174Z,1.40
2023-05-24T16:24:22.105Z,1.20
2023-05-24T16:26:59.579Z,1.27
2023-05-24T16:32:19.304Z,1.50
2023-05-24T16:35:00.079Z,1.30
2023-05-24T16:35:06.624Z,1.40
2023-05-24T16:37:40.176Z,1.33
2023-05-24T16:40:10.832Z,1.60
2023-05-24T16:42:44.429Z,1.50
2023-05-24T16:45:30.482Z,1.38
2023-05-24T16:48:29.814Z,1.75
2023-05-24T16:51:01.724Z,1.38
2023-05-24T16:53:34.433Z,1.50
2023-05-24T16:56:15.556Z,1.20
2023-05-24T16:58:42.242Z,1.50
2023-05-24T17:01:16.575Z,1.40
2023-05-24T17:03:45.921Z,1.67
2023-05-24T17:06:13.094Z,1.43
2023-05-24T17:08:51.352Z,1.33
2023-05-24T17:11:19.950Z,1.60
2023-05-24T17:13:51.259Z,1.85
2023-05-24T17:16:19.476Z,2.80
2023-05-24T17:18:53.024Z,3.80
2023-05-24T17:21:22.171Z,1.70
2023-05-24T17:24:31.199Z,1.50
2023-05-24T17:27:01.108Z,1.67
2023-05-24T17:29:32.563Z,1.40
2023-05-24T17:32:08.422Z,1.27
2023-05-24T17:34:45.797Z,1.83
2023-05-24T17:37:33.847Z,2.22
2023-05-24T17:40:10.103Z,1.35
2023-05-24T17:42:41.862Z,0.95
2023-05-24T17:45:16.517Z,1.37
2023-05-24T17:47:55.023Z,1.23
2023-05-24T17:50:24.798Z,1.17
2023-05-24T17:55:51.116Z,1.23
2023-05-24T17:59:03.095Z,1.20
2023-05-24T18:01:38.249Z,0.90
2023-05-24T18:04:15.170Z,1.10
2023-05-24T18:07:17.939Z,1.15
2023-05-24T18:09:46.973Z,1.10
2023-05-24T18:12:15.424Z,1.60
2023-05-24T18:14:44.465Z,1.23
2023-05-24T18:17:23.996Z,1.15
2023-05-24T18:20:02.754Z,1.38
2023-05-24T18:22:29.561Z,2.22
2023-05-24T18:25:00.261Z,1.40
2023-05-24T18:27:43.026Z,2.38
2023-05-24T18:30:17.605Z,3.35
2023-05-24T18:33:03.387Z,1.25
2023-05-24T18:35:54.228Z,1.10
2023-05-24T18:38:29.881Z,1.17
2023-05-24T18:41:11.067Z,1.23
2023-05-24T18:44:14.433Z,1.13
2023-05-24T18:46:37.918Z,0.82
2023-05-24T18:49:06.892Z,1.40
2023-05-24T18:51:36.217Z,1.03
2023-05-24T18:54:21.215Z,1.10
2023-05-24T18:56:54.398Z,1.13
2023-05-24T18:59:24.716Z,1.33
2023-05-24T19:01:53.992Z,1.15
2023-05-24T19:04:20.806Z,1.30
2023-05-24T19:06:47.516Z,1.10
2023-05-24T19:09:14.248Z,1.40
2023-05-24T19:11:40.866Z,1.20
2023-05-24T19:14:07.620Z,1.35
2023-05-24T19:17:04.213Z,1.10
2023-05-24T19:19:32.871Z,1.42
2023-05-24T19:22:01.019Z,1.20
2023-05-24T19:24:34.780Z,1.70
2023-05-24T19:27:01.827Z,1.13
2023-05-24T19:29:41.680Z,1.30
2023-05-24T19:32:11.075Z,1.17
2023-05-24T19:34:43.356Z,1.60
2023-05-24T19:37:12.486Z,1.33
2023-05-24T19:39:40.602Z,1.50
2023-05-24T19:42:11.714Z,1.40
2023-05-24T19:44:43.205Z,1.35
2023-05-24T19:47:17.166Z,1.70
2023-05-24T19:49:44.181Z,1.17
2023-05-24T19:52:12.394Z,1.35
2023-05-24T19:54:45.000Z,1.40
2023-05-24T19:58:05.748Z,1.50
2023-05-24T20:00:49.554Z,1.70
2023-05-24T20:03:02.485Z,1.15
2023-05-24T20:05:40.272Z,1.33
2023-05-24T20:08:08.893Z,1.30
2023-05-24T20:10:36.647Z,1.40
2023-05-24T20:13:05.737Z,1.98
2023-05-24T20:15:32.555Z,1.50
2023-05-24T20:18:05.188Z,1.83
2023-05-24T20:20:39.825Z,1.53
2023-05-24T20:23:13.139Z,1.80
2023-05-24T20:25:44.772Z,1.38
2023-05-24T20:28:25.598Z,1.65
2023-05-24T20:31:10.137Z,1.75
2023-05-24T20:33:41.405Z,1.60
2023-05-24T20:36:24.610Z,1.67
2023-05-24T20:38:54.280Z,2.08
2023-05-24T20:41:25.761Z,1.75
2023-05-24T20:44:06.576Z,1.60
2023-05-24T20:46:43.084Z,1.67
2023-05-24T20:49:17.534Z,1.67
2023-05-24T20:51:49.291Z,1.55
2023-05-24T20:54:18.196Z,1.80
2023-05-24T20:56:49.318Z,2.05
2023-05-24T20:59:16.544Z,1.50
2023-05-24T21:01:46.290Z,1.85
2023-05-24T21:04:16.484Z,1.50
2023-05-24T21:06:43.217Z,1.80
2023-05-24T21:09:12.441Z,1.70
2023-05-24T21:11:47.519Z,1.97
2023-05-24T21:14:28.814Z,1.88
2023-05-24T21:17:03.417Z,1.90
2023-05-24T21:19:37.076Z,1.63
2023-05-24T21:22:06.570Z,1.52
2023-05-24T21:24:34.981Z,1.57
2023-05-24T21:27:06.314Z,1.77
2023-05-24T21:29:32.938Z,1.70
2023-05-24T21:31:59.736Z,1.40
2023-05-24T21:34:39.872Z,1.60
2023-05-24T21:37:12.287Z,1.80
2023-05-24T21:39:45.563Z,1.60
2023-05-24T21:42:17.145Z,1.73
2023-05-24T21:44:49.763Z,1.63
2023-05-24T21:47:28.209Z,1.67
2023-05-24T21:49:57.767Z,1.30
2023-05-24T21:52:29.508Z,1.85
2023-05-24T21:54:56.407Z,1.90
2023-05-24T21:57:31.757Z,1.63
2023-05-24T21:59:58.621Z,2.15
2023-05-24T22:02:34.557Z,1.73
2023-05-24T22:05:06.935Z,1.88
2023-05-24T22:07:55.394Z,2.30
2023-05-24T22:10:29.681Z,2.00
2023-05-24T22:13:07.921Z,1.95
2023-05-24T22:15:39.025Z,2.00
2023-05-24T22:18:15.316Z,1.60
2023-05-24T22:21:03.637Z,1.60
2023-05-24T22:23:36.774Z,1.83
2023-05-24T22:26:12.436Z,2.20
2023-05-24T22:28:58.147Z,1.63
2023-05-24T22:31:26.768Z,2.28
2023-05-24T22:34:30.452Z,2.40
2023-05-24T22:37:28.296Z,1.95
2023-05-24T22:39:55.647Z,2.08
2023-05-24T22:42:24.632Z,2.10
2023-05-24T22:45:14.388Z,1.83
2023-05-24T22:47:41.180Z,2.67
2023-05-24T22:50:18.398Z,2.47
2023-05-24T22:52:49.225Z,2.17
2023-05-24T22:55:19.190Z,2.27
2023-05-24T22:58:04.069Z,2.35
2023-05-24T23:00:33.698Z,2.10
2023-05-24T23:03:06.397Z,2.10
2023-05-24T23:05:37.619Z,2.10
2023-05-24T23:08:09.343Z,1.97
2023-05-24T23:10:45.919Z,2.65
2023-05-24T23:13:31.815Z,2.30
2023-05-24T23:16:09.343Z,2.20
2023-05-24T23:18:38.309Z,2.00
2023-05-24T23:21:07.354Z,1.80
2023-05-24T23:23:45.660Z,2.10
2023-05-24T23:26:14.694Z,2.45
2023-05-24T23:28:44.132Z,2.17
2023-05-24T23:31:11.285Z,3.05
2023-05-24T23:33:40.518Z,2.00
2023-05-24T23:36:19.262Z,2.67
2023-05-24T23:38:46.355Z,2.10
2023-05-24T23:41:17.867Z,2.08
2023-05-24T23:43:44.668Z,2.20
2023-05-24T23:46:18.804Z,1.90
2023-05-24T23:48:56.688Z,2.17
2023-05-24T23:51:30.003Z,1.92
2023-05-24T23:54:02.539Z,2.42
2023-05-24T23:56:35.202Z,2.05
2023-05-24T23:59:17.173Z,1.87
